Time;durP1;ratioP1;P1;durP2;ratioP2;P2;SDS_P1;SDS_P2;PMS_P1;PMS_P2;Temp;Humidity;BMP_temperature;BMP_pressure;BME280_temperature;BME280_humidity;BME280_pressure;Samples;Min_cycle;Max_cycle;Signal;HPM_P1;HPM_P2
2022/03/12 00:01:29;;;;;;;11.50;10.37;;;;;;;9.11;30.88;100945.50;5096518;28;20216;-67
2022/03/12 00:04:00;;;;;;;15.00;10.63;;;;;;;9.23;30.52;100950.34;5096356;28;20597;-67
2022/03/12 00:06:27;;;;;;;10.00;9.07;;;;;;;9.19;31.38;100950.47;5096541;28;20190;-67
2022/03/12 00:08:55;;;;;;;14.73;10.13;;;;;;;9.13;31.40;100953.28;5096198;28;20194;-67
2022/03/12 00:11:22;;;;;;;11.27;10.17;;;;;;;9.14;30.86;100949.75;5096041;28;20218;-67
2022/03/12 00:13:50;;;;;;;10.80;10.03;;;;;;;9.15;31.32;100949.75;5096408;28;20193;-67
2022/03/12 00:16:23;;;;;;;11.80;10.80;;;;;;;9.20;31.56;100947.81;5096170;28;20186;-67
2022/03/12 00:18:55;;;;;;;16.83;11.30;;;;;;;9.21;31.57;100952.13;5096107;28;20185;-67
2022/03/12 00:21:30;;;;;;;11.47;10.47;;;;;;;9.28;31.01;100942.34;5094563;28;20309;-67
2022/03/12 00:23:59;;;;;;;11.73;10.63;;;;;;;9.20;31.71;100946.97;5096462;28;20640;-67
2022/03/12 00:26:28;;;;;;;19.40;10.27;;;;;;;9.23;31.60;100952.09;5095870;28;20196;-67
2022/03/12 00:28:55;;;;;;;10.93;10.00;;;;;;;9.31;31.57;100957.94;5096356;28;20186;-67
2022/03/12 00:31:23;;;;;;;11.10;10.03;;;;;;;9.32;30.99;100964.88;5095655;28;20218;-67
2022/03/12 00:33:51;;;;;;;11.63;10.60;;;;;;;9.56;30.45;100961.44;5095684;28;20190;-67
2022/03/12 00:36:18;;;;;;;11.73;10.63;;;;;;;9.48;31.25;100968.69;5077643;28;20182;-66
2022/03/12 00:38:45;;;;;;;13.20;10.20;;;;;;;9.56;30.68;100964.06;5096040;28;20179;-66
2022/03/12 00:41:13;;;;;;;12.60;10.13;;;;;;;9.38;31.15;100965.53;5095796;28;20197;-66
2022/03/12 00:43:40;;;;;;;11.40;10.10;;;;;;;9.48;31.38;100966.06;5096146;28;20190;-66
2022/03/12 00:46:06;;;;;;;10.77;10.00;;;;;;;9.43;31.19;100967.13;5095574;28;20201;-66
2022/03/12 00:48:34;;;;;;;11.63;10.60;;;;;;;9.37;31.38;100965.56;5095961;28;20201;-66
2022/03/12 00:51:06;;;;;;;11.43;10.33;;;;;;;9.30;31.56;100972.75;5095815;28;20247;-67
2022/03/12 00:53:34;;;;;;;11.50;10.70;;;;;;;9.34;31.31;100968.28;5095644;28;20552;-66
2022/03/12 00:56:01;;;;;;;10.93;10.13;;;;;;;9.29;31.21;100971.06;5095346;28;20190;-66
2022/03/12 00:58:28;;;;;;;12.70;10.53;;;;;;;9.27;31.83;100971.97;5095554;28;20562;-66
2022/03/12 01:00:54;;;;;;;11.13;10.20;;;;;;;9.31;31.76;100958.78;5095467;28;20174;-66
2022/03/12 01:03:21;;;;;;;18.23;9.80;;;;;;;9.34;31.65;100976.09;5095111;28;20259;-66
2022/03/12 01:05:57;;;;;;;11.70;10.80;;;;;;;9.27;32.05;100966.75;5095420;28;20178;-66
2022/03/12 01:08:25;;;;;;;11.40;10.37;;;;;;;9.26;32.01;100970.28;5095399;28;20174;-66
2022/03/12 01:10:53;;;;;;;13.00;9.97;;;;;;;9.26;32.09;100965.91;5095266;28;20596;-66
2022/03/12 01:13:21;;;;;;;12.77;11.20;;;;;;;9.25;32.46;100968.56;5095491;28;20206;-66
2022/03/12 01:15:48;;;;;;;11.53;10.43;;;;;;;9.24;32.61;100972.09;5094945;28;20186;-66
2022/03/12 01:18:17;;;;;;;11.30;10.50;;;;;;;9.13;32.98;100968.94;5095157;28;20656;-66
2022/03/12 01:20:44;;;;;;;11.10;10.13;;;;;;;9.10;32.40;100970.75;5094799;28;20189;-66
2022/03/12 01:23:13;;;;;;;11.27;10.30;;;;;;;9.06;33.01;100970.91;5094790;28;20220;-66
2022/03/12 01:25:46;;;;;;;14.90;10.97;;;;;;;9.03;33.55;100971.84;5094731;28;20273;-66
2022/03/12 01:28:15;;;;;;;11.63;10.53;;;;;;;8.96;33.17;100967.72;5094777;28;20178;-66
2022/03/12 01:30:42;;;;;;;11.53;10.17;;;;;;;9.01;32.96;100968.44;5094837;28;20702;-66
2022/03/12 01:33:09;;;;;;;15.33;11.53;;;;;;;8.95;33.31;100970.38;5094307;28;20212;-66
2022/03/12 01:35:37;;;;;;;14.90;10.50;;;;;;;8.95;32.91;100975.63;5094617;28;20189;-66
2022/03/12 01:38:04;;;;;;;13.23;11.07;;;;;;;8.87;33.71;100977.59;5094526;28;20197;-66
2022/03/12 01:40:31;;;;;;;14.20;11.40;;;;;;;8.94;33.03;100979.97;5095030;28;20197;-66
2022/03/12 01:42:58;;;;;;;12.23;11.13;;;;;;;8.93;33.43;100973.06;5094953;28;20213;-66
2022/03/12 01:45:27;;;;;;;12.40;11.30;;;;;;;8.93;33.11;100967.84;5094421;28;20182;-66
2022/03/12 01:48:00;;;;;;;11.70;10.60;;;;;;;8.87;33.85;100978.47;5094608;28;20182;-66
2022/03/12 01:50:30;;;;;;;12.07;10.93;;;;;;;8.83;33.54;100971.59;5094240;28;20213;-66
2022/03/12 01:53:02;;;;;;;14.63;10.60;;;;;;;8.83;33.52;100979.44;5094173;28;20205;-66
2022/03/12 01:55:30;;;;;;;13.13;11.30;;;;;;;8.88;33.38;100981.91;5094277;28;20170;-66
2022/03/12 01:58:02;;;;;;;16.10;10.60;;;;;;;8.87;33.55;100977.59;5094425;28;20190;-66
2022/03/12 02:00:47;;;;;;;13.37;10.47;;;;;;;8.74;34.47;100972.75;5094086;28;20269;-66
2022/03/12 02:03:16;;;;;;;11.67;10.87;;;;;;;8.85;33.97;100975.00;5094035;28;20213;-66
2022/03/12 02:05:43;;;;;;;13.23;9.97;;;;;;;8.82;34.09;100977.72;5094855;28;20190;-66
2022/03/12 02:08:14;;;;;;;13.13;10.43;;;;;;;8.73;34.15;100972.78;5093997;28;20190;-66
2022/03/12 02:10:42;;;;;;;17.23;10.90;;;;;;;8.78;34.01;100976.09;5094212;28;20190;-66
2022/03/12 02:13:10;;;;;;;12.83;11.63;;;;;;;8.79;34.32;100965.63;5093831;28;20209;-66
2022/03/12 02:15:37;;;;;;;18.30;11.73;;;;;;;8.89;34.19;100976.66;5094435;28;20536;-66
2022/03/12 02:18:04;;;;;;;11.67;10.53;;;;;;;8.78;34.30;100976.09;5094062;28;20186;-66
2022/03/12 02:20:31;;;;;;;12.03;10.73;;;;;;;8.89;34.30;100978.41;5093917;28;20197;-66
2022/03/12 02:22:59;;;;;;;11.57;10.47;;;;;;;8.75;34.69;100982.28;5094038;28;20208;-66
2022/03/12 02:25:32;;;;;;;14.30;11.40;;;;;;;8.75;34.25;100982.28;5093672;28;20224;-66
2022/03/12 02:28:00;;;;;;;13.80;11.13;;;;;;;8.87;34.32;100988.03;5094273;28;20177;-66
2022/03/12 02:30:39;;;;;;;12.07;10.87;;;;;;;8.97;34.53;100987.72;5093575;28;20189;-66
2022/03/12 02:33:05;;;;;;;16.27;10.90;;;;;;;8.89;34.34;100981.88;5093612;28;20205;-66
2022/03/12 02:35:35;;;;;;;10.77;9.87;;;;;;;8.90;34.49;100988.78;5093575;28;20189;-66
2022/03/12 02:38:03;;;;;;;12.30;10.53;;;;;;;8.86;34.52;100986.31;5093813;28;20174;-66
2022/03/12 02:40:32;;;;;;;13.60;10.97;;;;;;;8.74;34.61;100988.41;5093493;28;20193;-66
2022/03/12 02:43:00;;;;;;;12.17;11.07;;;;;;;8.78;34.46;100987.38;5093700;28;20236;-67
2022/03/12 02:45:28;;;;;;;11.87;10.77;;;;;;;8.80;35.10;100987.38;5092688;28;20182;-67
2022/03/12 02:47:55;;;;;;;12.70;10.47;;;;;;;8.73;35.55;100989.31;5093315;28;20204;-66
2022/03/12 02:50:23;;;;;;;15.93;10.57;;;;;;;8.77;35.29;100992.66;5093583;28;20189;-66
2022/03/12 02:52:52;;;;;;;17.13;10.90;;;;;;;8.76;35.66;100998.78;5093554;28;20629;-66
2022/03/12 02:55:21;;;;;;;17.37;11.97;;;;;;;8.75;35.35;100995.31;5093618;28;20568;-66
2022/03/12 02:57:49;;;;;;;13.40;11.23;;;;;;;8.70;35.68;100997.22;5093559;28;20555;-66
2022/03/12 03:00:20;;;;;;;11.77;10.70;;;;;;;8.69;35.70;100999.88;5093609;28;20253;-66
2022/03/12 03:02:53;;;;;;;15.90;12.07;;;;;;;8.61;36.14;101001.84;5093495;28;20205;-66
2022/03/12 03:05:46;;;;;;;11.57;10.60;;;;;;;8.62;35.82;101003.56;5093294;28;20234;-66
2022/03/12 03:08:22;;;;;;;11.33;10.10;;;;;;;8.72;35.84;101011.09;5093520;28;20216;-66
2022/03/12 03:10:51;;;;;;;13.53;10.90;;;;;;;8.73;35.90;101009.34;5093445;28;20201;-66
2022/03/12 03:13:17;;;;;;;13.07;11.77;;;;;;;8.63;36.56;101010.47;5093106;28;20213;-66
2022/03/12 03:15:46;;;;;;;14.80;10.53;;;;;;;8.61;36.61;101007.06;5093418;28;20624;-66
2022/03/12 03:18:15;;;;;;;13.63;11.33;;;;;;;8.53;36.86;101008.13;5093175;28;20272;-66
2022/03/12 03:20:44;;;;;;;11.80;10.60;;;;;;;8.61;36.34;101007.06;5075136;28;20681;-66
2022/03/12 03:23:11;;;;;;;11.83;10.83;;;;;;;8.64;36.90;101012.19;5093282;28;20208;-66
2022/03/12 03:25:41;;;;;;;13.90;10.90;;;;;;;8.67;36.38;101015.59;5093402;28;20612;-66
2022/03/12 03:28:08;;;;;;;15.43;12.20;;;;;;;8.58;36.84;101013.25;5093347;28;20186;-66
2022/03/12 03:30:37;;;;;;;13.97;11.90;;;;;;;8.44;37.24;101015.38;5093238;28;20551;-66
2022/03/12 03:33:07;;;;;;;12.07;10.97;;;;;;;8.58;37.11;101021.06;5092985;28;20710;-66
2022/03/12 03:35:34;;;;;;;16.93;12.50;;;;;;;8.55;37.20;101018.53;5092982;28;20186;-66
2022/03/12 03:38:08;;;;;;;20.87;13.70;;;;;;;8.47;37.56;101029.19;5093240;28;20605;-66
2022/03/12 03:40:36;;;;;;;13.50;12.10;;;;;;;8.43;37.52;101019.75;5093478;28;20642;-66
2022/03/12 03:43:06;;;;;;;18.57;11.57;;;;;;;8.40;37.87;101019.81;5092859;28;20715;-66
2022/03/12 03:45:32;;;;;;;15.67;10.83;;;;;;;8.49;37.06;101023.91;5093514;28;20170;-66
2022/03/12 03:47:59;;;;;;;12.10;10.90;;;;;;;8.50;37.74;101021.28;5093135;28;20190;-66
2022/03/12 03:50:27;;;;;;;12.27;11.07;;;;;;;8.50;37.85;101031.72;5092845;28;20177;-66
2022/03/12 03:52:58;;;;;;;11.80;10.80;;;;;;;8.40;38.49;101035.47;5092669;28;20228;-66
2022/03/12 03:55:27;;;;;;;12.17;11.17;;;;;;;8.47;38.21;101036.16;5093127;28;20647;-66
2022/03/12 03:57:57;;;;;;;16.07;11.17;;;;;;;8.51;38.07;101043.88;5096713;28;20206;-66
2022/03/12 04:00:25;;;;;;;13.53;12.13;;;;;;;8.40;38.70;101051.13;5096988;28;20189;-66
2022/03/12 04:03:02;;;;;;;14.57;10.77;;;;;;;8.39;38.85;101053.78;5096284;28;20211;-66
2022/03/12 04:05:31;;;;;;;11.57;10.53;;;;;;;8.37;38.72;101052.97;5096611;28;20629;-66
2022/03/12 04:08:00;;;;;;;11.90;10.83;;;;;;;8.37;39.16;101061.66;5096657;28;20607;-66
2022/03/12 04:10:28;;;;;;;12.50;10.40;;;;;;;8.47;38.46;101067.47;5096480;28;20244;-66
2022/03/12 04:12:57;;;;;;;13.43;12.03;;;;;;;8.50;38.47;101055.22;5096310;28;20220;-66
2022/03/12 04:15:24;;;;;;;16.13;11.43;;;;;;;8.44;38.56;101063.19;5077945;28;20186;-66
2022/03/12 04:17:53;;;;;;;23.57;11.73;;;;;;;8.54;38.51;101059.44;5096099;28;20185;-66
2022/03/12 04:20:22;;;;;;;12.33;10.93;;;;;;;8.46;39.51;101063.16;5095953;28;20190;-66
2022/03/12 04:22:50;;;;;;;20.37;12.13;;;;;;;8.48;39.52;101053.53;5096001;28;20208;-66
2022/03/12 04:25:18;;;;;;;12.73;11.63;;;;;;;8.50;39.05;101059.53;5096209;28;20215;-66
2022/03/12 04:27:45;;;;;;;12.93;10.93;;;;;;;8.52;38.97;101060.38;5096190;28;20194;-66
2022/03/12 04:30:14;;;;;;;11.60;10.47;;;;;;;8.45;39.06;101054.47;5095902;28;20185;-66
2022/03/12 04:32:42;;;;;;;12.60;11.50;;;;;;;8.45;40.67;101062.31;5095666;28;20223;-66
2022/03/12 04:35:09;;;;;;;12.73;10.37;;;;;;;8.51;39.38;101067.34;5096075;28;20199;-66
2022/03/12 04:37:37;;;;;;;14.67;11.53;;;;;;;8.64;39.20;101065.25;5095726;28;20190;-67
2022/03/12 04:40:10;;;;;;;19.27;10.70;;;;;;;8.65;39.39;101073.97;5095659;28;20190;-66
2022/03/12 04:42:40;;;;;;;11.27;10.33;;;;;;;8.56;39.61;101067.22;5095588;28;20225;-66
2022/03/12 04:45:08;;;;;;;11.67;10.57;;;;;;;8.61;39.76;101069.72;5095920;28;20170;-66
2022/03/12 04:47:41;;;;;;;13.17;10.77;;;;;;;8.53;39.97;101075.13;5095839;28;20168;-66
2022/03/12 04:50:09;;;;;;;10.77;9.80;;;;;;;8.63;40.15;101080.94;5095725;28;20185;-66
2022/03/12 04:52:36;;;;;;;13.03;11.70;;;;;;;8.57;40.73;101081.13;5095340;28;20217;-66
2022/03/12 04:55:11;;;;;;;15.50;11.27;;;;;;;8.64;40.22;101080.91;5095703;28;20193;-66
2022/03/12 04:57:39;;;;;;;14.43;10.50;;;;;;;8.83;39.92;101076.03;5095684;28;20177;-67
2022/03/12 05:00:09;;;;;;;13.27;11.30;;;;;;;8.75;40.37;101078.88;5095631;28;20532;-66
2022/03/12 05:02:35;;;;;;;11.33;10.37;;;;;;;8.76;40.74;101083.19;5095379;28;20201;-66
2022/03/12 05:05:02;;;;;;;11.20;10.13;;;;;;;8.78;40.63;101088.34;5095717;28;20194;-66
2022/03/12 05:07:29;;;;;;;10.73;10.03;;;;;;;8.75;41.08;101088.47;5094710;28;20189;-66
2022/03/12 05:09:57;;;;;;;12.10;10.83;;;;;;;8.66;41.81;101084.34;5095089;28;20182;-66
2022/03/12 05:12:25;;;;;;;11.00;10.27;;;;;;;8.65;41.58;101092.22;5094886;28;20221;-66
2022/03/12 05:14:53;;;;;;;14.67;10.43;;;;;;;8.61;41.85;101088.84;5095557;28;20193;-66
2022/03/12 05:17:24;;;;;;;12.43;11.30;;;;;;;8.72;41.67;101088.56;5095280;28;20200;-66
2022/03/12 05:19:51;;;;;;;12.57;11.50;;;;;;;8.74;41.92;101084.13;5095047;28;20273;-66
2022/03/12 05:22:17;;;;;;;16.83;10.80;;;;;;;8.64;42.35;101085.28;5094784;28;20706;-66
2022/03/12 05:24:44;;;;;;;12.00;10.63;;;;;;;8.54;42.91;101087.28;5094786;28;20190;-66
2022/03/12 05:27:14;;;;;;;12.67;9.93;;;;;;;8.52;43.26;101096.91;5094801;28;20660;-66
2022/03/12 05:29:41;;;;;;;11.87;10.57;;;;;;;8.51;43.24;101092.59;5094720;28;20220;-66
2022/03/12 05:32:11;;;;;;;12.73;11.57;;;;;;;8.44;43.53;101098.88;5094535;28;20212;-66
2022/03/12 05:34:37;;;;;;;11.03;10.03;;;;;;;8.53;43.24;101098.63;5094633;28;20532;-66
2022/03/12 05:37:08;;;;;;;11.03;10.10;;;;;;;8.40;43.57;101102.47;5094509;28;20678;-66
2022/03/12 05:39:36;;;;;;;12.33;10.77;;;;;;;8.48;43.96;101101.34;5095376;28;20524;-66
2022/03/12 05:42:05;;;;;;;17.57;11.03;;;;;;;8.36;44.37;101112.13;5094406;28;20220;-66
2022/03/12 05:44:34;;;;;;;11.27;10.27;;;;;;;8.43;44.46;101102.38;5094436;28;20242;-66
2022/03/12 05:47:02;;;;;;;12.23;10.87;;;;;;;8.40;44.76;101102.47;5094669;28;20272;-66
2022/03/12 05:49:30;;;;;;;14.37;10.90;;;;;;;8.28;45.29;101106.19;5094602;28;20196;-66
2022/03/12 05:51:57;;;;;;;14.13;11.40;;;;;;;8.26;45.04;101108.00;5094411;28;20568;-66
2022/03/12 05:54:23;;;;;;;12.40;11.17;;;;;;;8.23;45.23;101113.31;5094217;28;20190;-66
2022/03/12 05:56:50;;;;;;;11.90;10.87;;;;;;;8.18;45.51;101113.41;5094483;28;20193;-66
2022/03/12 05:59:17;;;;;;;11.37;10.37;;;;;;;8.26;45.58;101111.44;5094182;28;20223;-66
2022/03/12 06:01:44;;;;;;;13.13;11.77;;;;;;;8.13;46.15;101119.63;5094065;28;20205;-66
2022/03/12 06:04:11;;;;;;;18.40;10.67;;;;;;;7.95;46.86;101119.19;5094081;28;20194;-66
2022/03/12 06:06:39;;;;;;;12.73;11.43;;;;;;;7.96;46.61;101113.06;5094619;28;20184;-66
2022/03/12 06:09:07;;;;;;;16.20;11.43;;;;;;;7.80;47.49;101116.09;5094037;28;20193;-66
2022/03/12 06:11:34;;;;;;;13.67;11.43;;;;;;;7.80;47.32;101114.34;5093778;28;20672;-66
2022/03/12 06:14:01;;;;;;;13.10;10.87;;;;;;;7.67;47.78;101115.50;5094201;28;20527;-66
2022/03/12 06:16:28;;;;;;;12.33;11.00;;;;;;;7.71;47.61;101117.13;5094140;28;20189;-66
2022/03/12 06:18:54;;;;;;;13.43;10.93;;;;;;;7.69;48.08;101126.75;5093298;28;20690;-66
2022/03/12 06:21:21;;;;;;;12.13;10.83;;;;;;;7.68;47.88;101122.44;5093424;28;20287;-66
2022/03/12 06:23:48;;;;;;;12.27;11.17;;;;;;;7.75;47.99;101128.38;5094008;28;20185;-66
2022/03/12 06:26:15;;;;;;;11.60;10.47;;;;;;;7.88;48.02;101133.25;5093915;28;20185;-66
2022/03/12 06:28:43;;;;;;;10.90;9.97;;;;;;;8.05;47.75;101125.03;5093694;28;20195;-66
2022/03/12 06:31:12;;;;;;;12.00;10.90;;;;;;;7.94;47.95;101132.28;5093578;28;20179;-66
2022/03/12 06:33:40;;;;;;;11.80;10.73;;;;;;;7.92;48.20;101131.44;5093488;28;20213;-66
2022/03/12 06:36:09;;;;;;;19.87;12.60;;;;;;;7.84;48.88;101138.56;5093620;28;20181;-66
2022/03/12 06:38:37;;;;;;;15.03;10.73;;;;;;;8.07;48.96;101138.03;5094051;28;20204;-66
2022/03/12 06:41:05;;;;;;;20.30;11.40;;;;;;;8.04;49.30;101141.56;5093421;28;20185;-66
2022/03/12 06:43:33;;;;;;;18.40;12.30;;;;;;;8.24;50.00;101139.34;5093774;28;20536;-66
2022/03/12 06:46:02;;;;;;;15.07;10.83;;;;;;;8.17;50.44;101143.00;5093396;28;20200;-66
2022/03/12 06:48:30;;;;;;;12.50;11.20;;;;;;;8.10;50.89;101145.78;5093321;28;20196;-66
2022/03/12 06:50:56;;;;;;;11.60;10.47;;;;;;;8.26;51.08;101139.28;5093968;28;20174;-66
2022/03/12 06:53:24;;;;;;;14.63;11.37;;;;;;;8.22;51.44;101140.28;5093536;28;20211;-66
2022/03/12 06:55:50;;;;;;;12.00;10.90;;;;;;;8.38;51.91;101151.22;5093654;28;20212;-66
2022/03/12 06:58:18;;;;;;;14.00;10.40;;;;;;;8.57;52.08;101151.59;5093847;28;20210;-66
2022/03/12 07:00:44;;;;;;;11.33;10.33;;;;;;;8.59;52.19;101155.88;5093509;28;20189;-66
2022/03/12 07:03:11;;;;;;;13.30;10.80;;;;;;;8.60;52.27;101148.91;5093464;28;20201;-66
2022/03/12 07:05:38;;;;;;;13.83;11.30;;;;;;;8.65;52.19;101147.06;5093541;28;20219;-66
2022/03/12 07:08:04;;;;;;;12.53;11.33;;;;;;;8.81;51.96;101140.50;5093532;28;20552;-66
2022/03/12 07:10:31;;;;;;;12.70;11.53;;;;;;;9.00;51.86;101140.84;5093506;28;20189;-66
2022/03/12 07:12:58;;;;;;;17.37;14.27;;;;;;;9.05;52.11;101150.28;5093173;28;20690;-66
2022/03/12 07:15:25;;;;;;;11.93;10.80;;;;;;;9.06;52.43;101140.69;5093157;28;20195;-66
2022/03/12 07:17:51;;;;;;;15.40;11.70;;;;;;;9.05;52.73;101152.88;5093135;28;20182;-66
2022/03/12 07:20:18;;;;;;;13.43;11.43;;;;;;;9.14;52.63;101148.28;5093204;28;20565;-66
2022/03/12 07:22:45;;;;;;;20.27;11.23;;;;;;;9.06;53.31;101151.13;5093566;28;20576;-66
2022/03/12 07:25:13;;;;;;;12.60;11.40;;;;;;;9.14;53.22;101150.91;5093349;28;20193;-66
2022/03/12 07:27:40;;;;;;;16.93;11.30;;;;;;;9.25;53.63;101154.06;5093093;28;20193;-66
2022/03/12 07:30:09;;;;;;;11.57;10.53;;;;;;;9.27;54.26;101149.66;5093618;28;20174;-66
2022/03/12 07:32:36;;;;;;;13.23;10.27;;;;;;;9.40;53.85;101148.41;5096485;28;20201;-66
2022/03/12 07:35:04;;;;;;;15.93;10.83;;;;;;;9.45;53.56;101149.13;5096938;28;20185;-66
2022/03/12 07:37:31;;;;;;;11.53;10.23;;;;;;;9.49;54.52;101153.34;5096882;28;20194;-66
2022/03/12 07:39:58;;;;;;;11.77;10.40;;;;;;;9.60;54.25;101161.75;5096857;28;20182;-66
2022/03/12 07:42:24;;;;;;;11.60;10.77;;;;;;;9.73;54.14;101156.16;5097282;28;20194;-66
2022/03/12 07:44:51;;;;;;;12.13;11.00;;;;;;;9.73;54.31;101154.38;5096968;28;20194;-66
2022/03/12 07:47:17;;;;;;;15.80;10.73;;;;;;;9.81;54.52;101154.16;5096958;28;20186;-66
2022/03/12 07:49:44;;;;;;;11.17;10.27;;;;;;;9.76;54.94;101161.28;5096893;28;20197;-66
2022/03/12 07:52:14;;;;;;;11.33;10.33;;;;;;;9.92;54.62;101160.72;5096744;28;20544;-66
2022/03/12 07:54:41;;;;;;;11.17;10.30;;;;;;;9.96;55.29;101171.13;5097019;28;20291;-66
2022/03/12 07:57:08;;;;;;;11.67;10.77;;;;;;;10.13;54.93;101167.03;5097093;28;20166;-66
2022/03/12 07:59:34;;;;;;;11.87;10.67;;;;;;;10.27;54.93;101165.78;5096483;28;20183;-66
2022/03/12 08:02:02;;;;;;;12.17;10.50;;;;;;;10.40;54.77;101169.72;5096329;28;20213;-66
2022/03/12 08:04:32;;;;;;;10.97;9.93;;;;;;;10.50;54.51;101168.47;5096659;28;20180;-66
2022/03/12 08:07:02;;;;;;;10.03;9.53;;;;;;;10.68;54.17;101167.00;5096913;28;20524;-66
2022/03/12 08:09:30;;;;;;;16.13;9.43;;;;;;;10.76;54.37;101167.59;5096280;28;20271;-66
2022/03/12 08:11:58;;;;;;;10.23;9.40;;;;;;;10.77;54.55;101171.06;5096093;28;20208;-66
2022/03/12 08:14:25;;;;;;;10.67;9.83;;;;;;;10.86;54.31;101171.63;5096726;28;20546;-66
2022/03/12 08:16:52;;;;;;;10.83;9.97;;;;;;;11.03;54.20;101179.72;5096100;28;20184;-66
2022/03/12 08:19:21;;;;;;;10.40;9.80;;;;;;;11.19;54.34;101187.88;5096076;28;20201;-66
2022/03/12 08:21:49;;;;;;;11.97;9.63;;;;;;;11.29;53.42;101186.66;5095982;28;20216;-66
2022/03/12 08:24:16;;;;;;;9.83;9.03;;;;;;;11.28;54.03;101195.41;5096194;28;20196;-66
2022/03/12 08:26:44;;;;;;;9.83;9.10;;;;;;;11.45;53.71;101186.09;5096185;28;20184;-66
2022/03/12 08:29:14;;;;;;;16.13;10.23;;;;;;;11.65;53.52;101188.81;5095866;28;20200;-66
2022/03/12 08:31:41;;;;;;;9.50;9.03;;;;;;;11.69;53.59;101200.03;5096469;28;20563;-66
2022/03/12 08:34:10;;;;;;;10.93;10.10;;;;;;;11.72;54.26;101210.44;5095667;28;20217;-66
2022/03/12 08:36:37;;;;;;;10.30;9.37;;;;;;;11.68;53.79;101207.06;5096054;28;20181;-66
2022/03/12 08:39:04;;;;;;;9.50;8.87;;;;;;;11.61;53.99;101216.06;5095669;28;20194;-67
2022/03/12 08:41:30;;;;;;;10.17;9.27;;;;;;;11.55;54.38;101218.91;5096032;28;20221;-66
2022/03/12 08:43:57;;;;;;;9.33;8.83;;;;;;;11.80;54.03;101217.13;5094734;28;20543;-66
2022/03/12 08:46:23;;;;;;;9.07;8.70;;;;;;;11.91;54.13;101229.81;5095456;28;20195;-66
2022/03/12 08:48:50;;;;;;;12.03;9.07;;;;;;;12.24;52.79;101222.41;5095801;28;20288;-66
2022/03/12 08:51:17;;;;;;;9.40;8.80;;;;;;;12.35;52.78;101221.94;5095626;28;20182;-66
2022/03/12 08:53:43;;;;;;;13.70;12.13;;;;;;;12.55;52.80;101229.88;5095259;28;20205;-67
2022/03/12 08:56:10;;;;;;;9.80;9.07;;;;;;;12.49;52.59;101232.75;5095391;28;20189;-67
2022/03/12 08:58:37;;;;;;;10.13;8.63;;;;;;;12.61;52.62;101229.63;5095333;28;20189;-66
2022/03/12 09:01:06;;;;;;;8.47;8.13;;;;;;;12.66;52.29;101232.06;5095754;28;20666;-67
2022/03/12 09:03:35;;;;;;;8.50;8.20;;;;;;;12.66;53.46;101239.94;5095641;28;20198;-66
2022/03/12 09:06:03;;;;;;;8.67;8.23;;;;;;;12.52;54.11;101244.91;5095464;28;20652;-67
2022/03/12 09:08:29;;;;;;;9.33;8.63;;;;;;;12.62;53.44;101246.22;5095152;28;20197;-67
2022/03/12 09:10:58;;;;;;;8.37;7.97;;;;;;;12.67;54.50;101239.03;5095094;28;20189;-67
2022/03/12 09:13:25;;;;;;;8.80;8.30;;;;;;;12.79;54.67;101248.19;5094836;28;20216;-67
2022/03/12 09:15:51;;;;;;;8.47;8.10;;;;;;;12.79;54.95;101245.56;5095157;28;20555;-67
2022/03/12 09:18:20;;;;;;;9.80;8.97;;;;;;;12.58;54.61;101249.94;5095155;28;20220;-67
2022/03/12 09:20:47;;;;;;;10.27;9.57;;;;;;;12.72;55.29;101254.63;5095489;28;20654;-67
2022/03/12 09:23:16;;;;;;;9.63;9.03;;;;;;;12.88;54.62;101253.91;5094952;28;20292;-67
2022/03/12 09:25:44;;;;;;;9.37;8.77;;;;;;;12.97;54.51;101246.53;5095111;28;20656;-67
2022/03/12 09:28:13;;;;;;;9.00;8.20;;;;;;;13.11;53.82;101266.06;5077437;28;20185;-67
2022/03/12 09:30:40;;;;;;;9.23;8.73;;;;;;;13.20;53.71;101267.44;5094962;28;20174;-67
2022/03/12 09:33:07;;;;;;;9.00;8.37;;;;;;;13.23;53.34;101263.84;5094619;28;20294;-67
2022/03/12 09:35:34;;;;;;;8.53;8.03;;;;;;;13.39;53.54;101260.47;5094762;28;20185;-67
2022/03/12 09:38:01;;;;;;;8.73;8.27;;;;;;;13.77;53.58;101263.16;5095128;28;20182;-67
2022/03/12 09:40:29;;;;;;;8.33;8.03;;;;;;;13.83;53.17;101260.25;5094565;28;20651;-67
2022/03/12 09:42:56;;;;;;;9.10;8.37;;;;;;;13.44;54.32;101262.91;5094330;28;20195;-67
2022/03/12 09:45:23;;;;;;;8.10;7.80;;;;;;;13.45;54.37;101257.56;5094687;28;20194;-66
2022/03/12 09:47:51;;;;;;;8.63;8.13;;;;;;;13.47;53.82;101253.09;5094675;28;20256;-66
2022/03/12 09:50:18;;;;;;;8.00;7.70;;;;;;;13.40;54.54;101256.91;5094594;28;20190;-67
2022/03/12 09:52:45;;;;;;;8.43;8.03;;;;;;;13.59;54.61;101256.97;5094097;28;20217;-67
2022/03/12 09:55:13;;;;;;;8.47;8.13;;;;;;;13.63;53.53;101260.28;5094299;28;20645;-67
2022/03/12 09:57:43;;;;;;;8.67;8.27;;;;;;;13.47;53.74;101279.41;5094437;28;20174;-66
2022/03/12 10:00:11;;;;;;;9.43;8.73;;;;;;;13.62;54.29;101275.22;5094317;28;20178;-66
2022/03/12 10:02:37;;;;;;;9.57;8.83;;;;;;;13.57;53.54;101279.84;5094514;28;20210;-67
2022/03/12 10:05:04;;;;;;;9.33;8.40;;;;;;;13.74;53.53;101273.84;5094044;28;20264;-67
2022/03/12 10:07:31;;;;;;;8.27;8.00;;;;;;;13.93;53.03;101263.28;5094596;28;20572;-66
2022/03/12 10:09:58;;;;;;;8.80;8.10;;;;;;;13.78;53.00;101265.72;5093907;28;20189;-66
2022/03/12 10:12:24;;;;;;;8.37;8.07;;;;;;;13.85;53.43;101273.31;5093975;28;20757;-67
2022/03/12 10:14:56;;;;;;;8.20;7.83;;;;;;;13.64;53.23;101272.53;5093892;28;20622;-66
2022/03/12 10:17:23;;;;;;;8.10;7.77;;;;;;;13.56;53.22;101275.50;5094370;28;20188;-66
2022/03/12 10:19:49;;;;;;;8.73;8.27;;;;;;;13.36;53.88;101281.66;5093717;28;20200;-67
2022/03/12 10:22:16;;;;;;;8.87;8.57;;;;;;;13.08;54.75;101289.00;5094065;28;20214;-66
2022/03/12 10:24:43;;;;;;;9.43;8.40;;;;;;;13.01;55.39;101277.03;5093636;28;20269;-66
2022/03/12 10:27:09;;;;;;;6.80;6.60;;;;;;;13.34;54.66;101283.50;5093900;28;20189;-66
2022/03/12 10:29:38;;;;;;;9.00;8.60;;;;;;;13.43;53.97;101277.84;5094264;28;20540;-66
2022/03/12 10:32:41;;;;;;;9.20;8.50;;;;;;;13.62;53.66;101267.34;5093518;28;20220;-66
2022/03/12 10:35:09;;;;;;;9.07;8.43;;;;;;;13.64;53.59;101265.47;5087643;28;20536;-66
2022/03/12 10:37:35;;;;;;;7.97;7.47;;;;;;;13.77;54.11;101276.31;5093470;28;20194;-66
2022/03/12 10:40:19;;;;;;;8.87;8.37;;;;;;;13.86;52.98;101268.00;5094246;28;20238;-66
2022/03/12 10:43:05;;;;;;;8.67;8.20;;;;;;;14.08;52.59;101267.00;5093492;28;20290;-67
2022/03/12 10:45:40;;;;;;;9.27;8.57;;;;;;;13.93;53.33;101266.81;5093779;28;20646;-66
2022/03/12 10:48:07;;;;;;;8.93;8.53;;;;;;;14.08;52.68;101267.88;5093681;28;20188;-66
2022/03/12 10:50:43;;;;;;;8.93;8.23;;;;;;;14.08;52.19;101259.97;5093395;28;20196;-66
2022/03/12 10:53:11;;;;;;;8.67;8.20;;;;;;;14.65;52.55;101249.34;5093220;28;20214;-66
2022/03/12 10:55:41;;;;;;;9.07;8.27;;;;;;;15.02;52.29;101253.63;5093899;28;20192;-67
2022/03/12 10:58:34;;;;;;;8.03;7.73;;;;;;;15.31;49.23;101249.47;5093340;28;20182;-67
2022/03/12 11:01:01;;;;;;;7.30;7.10;;;;;;;15.38;49.55;101256.97;5091569;28;20217;-68
2022/03/12 11:03:33;;;;;;;12.03;7.67;;;;;;;15.39;48.98;101255.19;5093509;28;20193;-67
2022/03/12 11:06:01;;;;;;;8.13;7.93;;;;;;;15.49;49.37;101256.41;5094590;28;20170;-67
2022/03/12 11:08:30;;;;;;;8.40;7.87;;;;;;;15.72;47.61;101256.97;5097359;28;20261;-67
2022/03/12 11:11:12;;;;;;;8.27;7.97;;;;;;;15.65;47.24;101257.34;5097432;28;20561;-67
2022/03/12 11:13:47;;;;;;;9.80;8.87;;;;;;;15.45;48.33;101249.59;5097617;28;20190;-67
2022/03/12 11:16:32;;;;;;;8.73;8.17;;;;;;;15.74;47.84;101256.00;5097602;28;20631;-67
2022/03/12 11:19:12;;;;;;;7.93;7.53;;;;;;;15.76;47.22;101251.47;5096088;28;20257;-67
2022/03/12 11:21:52;;;;;;;7.70;7.30;;;;;;;15.80;46.98;101254.81;5096957;28;20213;-67
2022/03/12 11:24:25;;;;;;;7.70;6.63;;;;;;;15.67;46.72;101257.25;5097450;28;20284;-67
2022/03/12 11:27:03;;;;;;;8.80;8.17;;;;;;;15.67;47.57;101252.81;5097351;28;20178;-67